sensor_id;sensor_type;location;lat;lon;timestamp;P1;durP1;ratioP1;P2;durP2;ratioP2
62796;SDS011;48839;48.546;-4.178;2023-04-03T00:00:07;8.35;;;4.32;;
62796;SDS011;48839;48.546;-4.178;2023-04-03T00:02:34;6.07;;;4.05;;
62796;SDS011;48839;48.546;-4.178;2023-04-03T00:05:00;11.43;;;4.10;;
62796;SDS011;48839;48.546;-4.178;2023-04-03T00:07:26;5.97;;;4.05;;
62796;SDS011;48839;48.546;-4.178;2023-04-03T00:09:52;6.35;;;3.90;;
62796;SDS011;48839;48.546;-4.178;2023-04-03T00:12:18;5.03;;;3.55;;
62796;SDS011;48839;48.546;-4.178;2023-04-03T00:14:44;9.07;;;3.70;;
62796;SDS011;48839;48.546;-4.178;2023-04-03T00:17:10;4.85;;;3.25;;
62796;SDS011;48839;48.546;-4.178;2023-04-03T00:19:36;5.63;;;3.80;;
62796;SDS011;48839;48.546;-4.178;2023-04-03T00:22:02;4.32;;;3.53;;
62796;SDS011;48839;48.546;-4.178;2023-04-03T00:24:28;9.65;;;3.97;;
62796;SDS011;48839;48.546;-4.178;2023-04-03T00:26:54;6.65;;;4.10;;
62796;SDS011;48839;48.546;-4.178;2023-04-03T00:29:20;5.93;;;3.65;;
62796;SDS011;48839;48.546;-4.178;2023-04-03T00:31:46;8.68;;;3.88;;
62796;SDS011;48839;48.546;-4.178;2023-04-03T00:34:12;6.40;;;3.58;;
62796;SDS011;48839;48.546;-4.178;2023-04-03T00:36:38;6.63;;;3.83;;
62796;SDS011;48839;48.546;-4.178;2023-04-03T00:39:04;4.90;;;3.45;;
62796;SDS011;48839;48.546;-4.178;2023-04-03T00:41:31;8.10;;;4.20;;
62796;SDS011;48839;48.546;-4.178;2023-04-03T00:43:58;5.35;;;3.55;;
62796;SDS011;48839;48.546;-4.178;2023-04-03T00:46:24;5.60;;;3.70;;
62796;SDS011;48839;48.546;-4.178;2023-04-03T00:48:50;5.07;;;3.08;;
62796;SDS011;48839;48.546;-4.178;2023-04-03T00:51:17;5.88;;;3.42;;
62796;SDS011;48839;48.546;-4.178;2023-04-03T00:53:49;7.28;;;3.67;;
62796;SDS011;48839;48.546;-4.178;2023-04-03T00:56:16;5.28;;;3.90;;
62796;SDS011;48839;48.546;-4.178;2023-04-03T00:58:48;4.82;;;3.83;;
62796;SDS011;48839;48.546;-4.178;2023-04-03T01:01:15;10.73;;;4.25;;
62796;SDS011;48839;48.546;-4.178;2023-04-03T01:03:43;4.65;;;3.35;;
62796;SDS011;48839;48.546;-4.178;2023-04-03T01:06:10;5.18;;;3.40;;
62796;SDS011;48839;48.546;-4.178;2023-04-03T01:08:36;11.13;;;3.47;;
62796;SDS011;48839;48.546;-4.178;2023-04-03T01:11:02;11.07;;;3.47;;
62796;SDS011;48839;48.546;-4.178;2023-04-03T01:13:30;5.38;;;3.78;;
62796;SDS011;48839;48.546;-4.178;2023-04-03T01:15:56;6.65;;;3.63;;
62796;SDS011;48839;48.546;-4.178;2023-04-03T01:18:22;5.68;;;3.53;;
62796;SDS011;48839;48.546;-4.178;2023-04-03T01:23:27;5.88;;;3.15;;
62796;SDS011;48839;48.546;-4.178;2023-04-03T01:25:56;5.03;;;3.35;;
62796;SDS011;48839;48.546;-4.178;2023-04-03T01:28:34;5.13;;;4.00;;
62796;SDS011;48839;48.546;-4.178;2023-04-03T01:33:45;5.57;;;3.50;;
62796;SDS011;48839;48.546;-4.178;2023-04-03T01:36:16;8.65;;;4.10;;
62796;SDS011;48839;48.546;-4.178;2023-04-03T01:38:42;5.72;;;3.58;;
62796;SDS011;48839;48.546;-4.178;2023-04-03T01:41:09;6.30;;;3.75;;
62796;SDS011;48839;48.546;-4.178;2023-04-03T01:43:35;6.93;;;3.80;;
62796;SDS011;48839;48.546;-4.178;2023-04-03T01:46:01;7.53;;;4.10;;
62796;SDS011;48839;48.546;-4.178;2023-04-03T01:48:27;7.22;;;4.18;;
62796;SDS011;48839;48.546;-4.178;2023-04-03T01:50:53;6.63;;;4.47;;
62796;SDS011;48839;48.546;-4.178;2023-04-03T01:53:19;7.80;;;4.38;;
62796;SDS011;48839;48.546;-4.178;2023-04-03T01:55:45;6.90;;;3.90;;
62796;SDS011;48839;48.546;-4.178;2023-04-03T01:58:11;8.18;;;3.53;;
62796;SDS011;48839;48.546;-4.178;2023-04-03T02:00:37;6.03;;;4.25;;
62796;SDS011;48839;48.546;-4.178;2023-04-03T02:03:03;5.47;;;3.78;;
62796;SDS011;48839;48.546;-4.178;2023-04-03T02:05:29;6.93;;;3.47;;
62796;SDS011;48839;48.546;-4.178;2023-04-03T02:07:55;9.60;;;4.53;;
62796;SDS011;48839;48.546;-4.178;2023-04-03T02:10:21;9.07;;;5.00;;
62796;SDS011;48839;48.546;-4.178;2023-04-03T02:12:47;8.48;;;4.47;;
62796;SDS011;48839;48.546;-4.178;2023-04-03T02:15:14;9.25;;;4.68;;
62796;SDS011;48839;48.546;-4.178;2023-04-03T02:17:40;8.93;;;4.20;;
62796;SDS011;48839;48.546;-4.178;2023-04-03T02:20:06;16.63;;;4.85;;
62796;SDS011;48839;48.546;-4.178;2023-04-03T02:22:32;7.05;;;4.40;;
62796;SDS011;48839;48.546;-4.178;2023-04-03T02:24:58;5.38;;;3.53;;
62796;SDS011;48839;48.546;-4.178;2023-04-03T02:27:24;11.75;;;4.28;;
62796;SDS011;48839;48.546;-4.178;2023-04-03T02:29:50;8.73;;;3.90;;
62796;SDS011;48839;48.546;-4.178;2023-04-03T02:32:16;5.30;;;3.67;;
62796;SDS011;48839;48.546;-4.178;2023-04-03T02:34:42;6.45;;;3.83;;
62796;SDS011;48839;48.546;-4.178;2023-04-03T02:37:08;6.80;;;4.47;;
62796;SDS011;48839;48.546;-4.178;2023-04-03T02:39:34;5.43;;;3.83;;
62796;SDS011;48839;48.546;-4.178;2023-04-03T02:42:00;8.18;;;4.40;;
62796;SDS011;48839;48.546;-4.178;2023-04-03T02:44:26;5.03;;;3.42;;
62796;SDS011;48839;48.546;-4.178;2023-04-03T02:46:52;7.47;;;4.57;;
62796;SDS011;48839;48.546;-4.178;2023-04-03T02:49:18;6.97;;;4.40;;
62796;SDS011;48839;48.546;-4.178;2023-04-03T02:51:45;10.30;;;4.97;;
62796;SDS011;48839;48.546;-4.178;2023-04-03T02:54:11;7.00;;;4.85;;
62796;SDS011;48839;48.546;-4.178;2023-04-03T02:56:37;6.15;;;4.30;;
62796;SDS011;48839;48.546;-4.178;2023-04-03T02:59:03;9.48;;;5.03;;
62796;SDS011;48839;48.546;-4.178;2023-04-03T03:01:30;7.95;;;5.30;;
62796;SDS011;48839;48.546;-4.178;2023-04-03T03:03:58;6.32;;;4.75;;
62796;SDS011;48839;48.546;-4.178;2023-04-03T03:06:24;7.72;;;4.65;;
62796;SDS011;48839;48.546;-4.178;2023-04-03T03:08:50;9.23;;;4.60;;
62796;SDS011;48839;48.546;-4.178;2023-04-03T03:11:16;10.07;;;4.80;;
62796;SDS011;48839;48.546;-4.178;2023-04-03T03:13:42;9.50;;;5.10;;
62796;SDS011;48839;48.546;-4.178;2023-04-03T03:16:08;9.30;;;4.30;;
62796;SDS011;48839;48.546;-4.178;2023-04-03T03:18:35;8.05;;;4.38;;
62796;SDS011;48839;48.546;-4.178;2023-04-03T03:21:01;7.88;;;3.90;;
62796;SDS011;48839;48.546;-4.178;2023-04-03T03:23:28;13.25;;;4.22;;
62796;SDS011;48839;48.546;-4.178;2023-04-03T03:26:05;7.35;;;4.55;;
62796;SDS011;48839;48.546;-4.178;2023-04-03T03:28:31;5.20;;;4.60;;
62796;SDS011;48839;48.546;-4.178;2023-04-03T03:30:57;9.40;;;5.10;;
62796;SDS011;48839;48.546;-4.178;2023-04-03T03:33:23;6.55;;;4.72;;
62796;SDS011;48839;48.546;-4.178;2023-04-03T03:35:50;13.65;;;5.22;;
62796;SDS011;48839;48.546;-4.178;2023-04-03T03:38:16;6.05;;;4.22;;
62796;SDS011;48839;48.546;-4.178;2023-04-03T03:40:42;7.53;;;3.42;;
62796;SDS011;48839;48.546;-4.178;2023-04-03T03:43:08;7.82;;;4.10;;
62796;SDS011;48839;48.546;-4.178;2023-04-03T03:45:34;5.18;;;3.28;;
62796;SDS011;48839;48.546;-4.178;2023-04-03T03:48:00;10.02;;;3.72;;
62796;SDS011;48839;48.546;-4.178;2023-04-03T03:50:27;7.70;;;3.88;;
62796;SDS011;48839;48.546;-4.178;2023-04-03T03:52:53;6.70;;;3.58;;
62796;SDS011;48839;48.546;-4.178;2023-04-03T03:55:19;3.92;;;3.53;;
62796;SDS011;48839;48.546;-4.178;2023-04-03T03:57:45;6.68;;;3.60;;
62796;SDS011;48839;48.546;-4.178;2023-04-03T04:00:11;7.13;;;4.18;;
62796;SDS011;48839;48.546;-4.178;2023-04-03T04:02:37;8.90;;;3.97;;
62796;SDS011;48839;48.546;-4.178;2023-04-03T04:05:03;6.95;;;3.60;;
62796;SDS011;48839;48.546;-4.178;2023-04-03T04:07:29;9.05;;;3.85;;
62796;SDS011;48839;48.546;-4.178;2023-04-03T04:09:55;6.70;;;3.92;;
62796;SDS011;48839;48.546;-4.178;2023-04-03T04:12:21;8.45;;;3.95;;
62796;SDS011;48839;48.546;-4.178;2023-04-03T04:14:47;7.43;;;3.70;;
62796;SDS011;48839;48.546;-4.178;2023-04-03T04:17:14;4.80;;;2.85;;
62796;SDS011;48839;48.546;-4.178;2023-04-03T04:19:40;10.55;;;3.47;;
62796;SDS011;48839;48.546;-4.178;2023-04-03T04:22:06;4.35;;;3.72;;
62796;SDS011;48839;48.546;-4.178;2023-04-03T04:24:32;10.88;;;3.53;;
62796;SDS011;48839;48.546;-4.178;2023-04-03T04:26:58;6.28;;;3.70;;
62796;SDS011;48839;48.546;-4.178;2023-04-03T04:29:24;9.45;;;3.92;;
62796;SDS011;48839;48.546;-4.178;2023-04-03T04:31:50;8.25;;;3.05;;
62796;SDS011;48839;48.546;-4.178;2023-04-03T04:34:16;6.93;;;3.22;;
62796;SDS011;48839;48.546;-4.178;2023-04-03T04:36:42;10.95;;;4.07;;
62796;SDS011;48839;48.546;-4.178;2023-04-03T04:39:08;8.32;;;3.40;;
62796;SDS011;48839;48.546;-4.178;2023-04-03T04:41:34;5.45;;;2.92;;
62796;SDS011;48839;48.546;-4.178;2023-04-03T04:44:00;4.40;;;3.08;;
62796;SDS011;48839;48.546;-4.178;2023-04-03T04:46:26;5.93;;;3.80;;
62796;SDS011;48839;48.546;-4.178;2023-04-03T04:48:52;7.75;;;3.30;;
62796;SDS011;48839;48.546;-4.178;2023-04-03T04:51:18;8.20;;;2.92;;
62796;SDS011;48839;48.546;-4.178;2023-04-03T04:53:45;6.53;;;2.95;;
62796;SDS011;48839;48.546;-4.178;2023-04-03T04:56:11;7.22;;;3.30;;
62796;SDS011;48839;48.546;-4.178;2023-04-03T04:58:37;4.30;;;2.88;;
62796;SDS011;48839;48.546;-4.178;2023-04-03T05:01:04;5.30;;;2.55;;
62796;SDS011;48839;48.546;-4.178;2023-04-03T05:03:30;3.10;;;2.50;;
62796;SDS011;48839;48.546;-4.178;2023-04-03T05:05:57;5.35;;;2.55;;
62796;SDS011;48839;48.546;-4.178;2023-04-03T05:08:23;5.15;;;2.63;;
62796;SDS011;48839;48.546;-4.178;2023-04-03T05:10:49;8.80;;;2.60;;
62796;SDS011;48839;48.546;-4.178;2023-04-03T05:13:15;7.05;;;3.25;;
62796;SDS011;48839;48.546;-4.178;2023-04-03T05:15:41;4.95;;;2.92;;
62796;SDS011;48839;48.546;-4.178;2023-04-03T05:18:07;3.17;;;2.72;;
62796;SDS011;48839;48.546;-4.178;2023-04-03T05:20:33;4.30;;;2.22;;
62796;SDS011;48839;48.546;-4.178;2023-04-03T05:22:59;9.13;;;2.72;;
62796;SDS011;48839;48.546;-4.178;2023-04-03T05:25:25;3.08;;;2.63;;
62796;SDS011;48839;48.546;-4.178;2023-04-03T05:27:51;5.00;;;2.50;;
62796;SDS011;48839;48.546;-4.178;2023-04-03T05:30:17;9.10;;;3.20;;
62796;SDS011;48839;48.546;-4.178;2023-04-03T05:32:44;6.35;;;3.88;;
62796;SDS011;48839;48.546;-4.178;2023-04-03T05:35:10;7.65;;;3.42;;
62796;SDS011;48839;48.546;-4.178;2023-04-03T05:37:36;4.55;;;3.38;;
62796;SDS011;48839;48.546;-4.178;2023-04-03T05:40:03;4.25;;;2.85;;
62796;SDS011;48839;48.546;-4.178;2023-04-03T05:42:29;7.90;;;3.60;;
62796;SDS011;48839;48.546;-4.178;2023-04-03T05:44:55;7.50;;;3.72;;
62796;SDS011;48839;48.546;-4.178;2023-04-03T05:47:21;4.88;;;3.53;;
62796;SDS011;48839;48.546;-4.178;2023-04-03T05:49:47;6.63;;;3.55;;
62796;SDS011;48839;48.546;-4.178;2023-04-03T05:52:20;7.22;;;4.30;;
62796;SDS011;48839;48.546;-4.178;2023-04-03T05:54:47;8.85;;;4.00;;
62796;SDS011;48839;48.546;-4.178;2023-04-03T05:57:13;6.28;;;3.80;;
62796;SDS011;48839;48.546;-4.178;2023-04-03T05:59:40;6.07;;;4.10;;
62796;SDS011;48839;48.546;-4.178;2023-04-03T06:02:06;4.57;;;3.63;;
62796;SDS011;48839;48.546;-4.178;2023-04-03T06:04:32;7.18;;;4.10;;
62796;SDS011;48839;48.546;-4.178;2023-04-03T06:06:58;8.93;;;4.28;;
62796;SDS011;48839;48.546;-4.178;2023-04-03T06:09:26;7.70;;;4.25;;
62796;SDS011;48839;48.546;-4.178;2023-04-03T06:11:53;5.88;;;4.80;;
62796;SDS011;48839;48.546;-4.178;2023-04-03T06:14:20;14.35;;;5.70;;
62796;SDS011;48839;48.546;-4.178;2023-04-03T06:16:46;8.15;;;5.72;;
62796;SDS011;48839;48.546;-4.178;2023-04-03T06:19:12;5.13;;;4.43;;
62796;SDS011;48839;48.546;-4.178;2023-04-03T06:21:38;7.40;;;4.50;;
62796;SDS011;48839;48.546;-4.178;2023-04-03T06:24:04;4.90;;;3.85;;
62796;SDS011;48839;48.546;-4.178;2023-04-03T06:26:31;7.85;;;3.78;;
62796;SDS011;48839;48.546;-4.178;2023-04-03T06:28:57;8.05;;;3.85;;
62796;SDS011;48839;48.546;-4.178;2023-04-03T06:31:23;6.15;;;3.47;;
62796;SDS011;48839;48.546;-4.178;2023-04-03T06:33:49;4.25;;;3.03;;
62796;SDS011;48839;48.546;-4.178;2023-04-03T06:36:15;8.20;;;3.70;;
62796;SDS011;48839;48.546;-4.178;2023-04-03T06:38:44;8.30;;;3.35;;
62796;SDS011;48839;48.546;-4.178;2023-04-03T06:41:11;4.28;;;3.35;;
62796;SDS011;48839;48.546;-4.178;2023-04-03T06:43:37;3.72;;;3.38;;
62796;SDS011;48839;48.546;-4.178;2023-04-03T06:46:03;5.47;;;4.03;;
62796;SDS011;48839;48.546;-4.178;2023-04-03T06:48:30;7.30;;;3.25;;
62796;SDS011;48839;48.546;-4.178;2023-04-03T06:50:56;5.57;;;3.47;;
62796;SDS011;48839;48.546;-4.178;2023-04-03T06:53:22;6.40;;;3.50;;
62796;SDS011;48839;48.546;-4.178;2023-04-03T06:55:48;5.25;;;3.08;;
62796;SDS011;48839;48.546;-4.178;2023-04-03T06:58:15;6.55;;;2.80;;
62796;SDS011;48839;48.546;-4.178;2023-04-03T07:00:42;7.82;;;2.92;;
62796;SDS011;48839;48.546;-4.178;2023-04-03T07:03:08;5.72;;;2.88;;
62796;SDS011;48839;48.546;-4.178;2023-04-03T07:05:34;5.72;;;3.08;;
62796;SDS011;48839;48.546;-4.178;2023-04-03T07:08:00;5.78;;;3.33;;
62796;SDS011;48839;48.546;-4.178;2023-04-03T07:10:26;5.57;;;2.60;;
62796;SDS011;48839;48.546;-4.178;2023-04-03T07:12:52;3.40;;;2.22;;
62796;SDS011;48839;48.546;-4.178;2023-04-03T07:15:18;6.30;;;2.40;;
62796;SDS011;48839;48.546;-4.178;2023-04-03T07:17:44;8.63;;;2.50;;
62796;SDS011;48839;48.546;-4.178;2023-04-03T07:20:11;9.10;;;2.60;;
62796;SDS011;48839;48.546;-4.178;2023-04-03T07:22:37;5.93;;;2.17;;
62796;SDS011;48839;48.546;-4.178;2023-04-03T07:25:03;8.32;;;2.63;;
62796;SDS011;48839;48.546;-4.178;2023-04-03T07:27:32;8.32;;;2.20;;
62796;SDS011;48839;48.546;-4.178;2023-04-03T07:29:58;5.93;;;2.33;;
62796;SDS011;48839;48.546;-4.178;2023-04-03T07:32:24;8.60;;;2.33;;
62796;SDS011;48839;48.546;-4.178;2023-04-03T07:34:50;6.63;;;2.13;;
62796;SDS011;48839;48.546;-4.178;2023-04-03T07:37:16;9.18;;;2.50;;
62796;SDS011;48839;48.546;-4.178;2023-04-03T07:39:43;9.45;;;2.70;;
62796;SDS011;48839;48.546;-4.178;2023-04-03T07:42:10;6.82;;;2.72;;
62796;SDS011;48839;48.546;-4.178;2023-04-03T07:44:37;5.13;;;1.63;;
62796;SDS011;48839;48.546;-4.178;2023-04-03T07:47:03;6.82;;;2.70;;
62796;SDS011;48839;48.546;-4.178;2023-04-03T07:49:29;4.03;;;2.25;;
62796;SDS011;48839;48.546;-4.178;2023-04-03T07:51:56;6.10;;;2.42;;
62796;SDS011;48839;48.546;-4.178;2023-04-03T07:54:23;7.25;;;2.53;;
62796;SDS011;48839;48.546;-4.178;2023-04-03T07:56:49;5.30;;;2.30;;
62796;SDS011;48839;48.546;-4.178;2023-04-03T07:59:15;6.13;;;2.50;;
62796;SDS011;48839;48.546;-4.178;2023-04-03T08:01:41;6.35;;;2.38;;
62796;SDS011;48839;48.546;-4.178;2023-04-03T08:04:07;7.10;;;2.13;;
62796;SDS011;48839;48.546;-4.178;2023-04-03T08:06:33;9.27;;;2.70;;
62796;SDS011;48839;48.546;-4.178;2023-04-03T08:09:01;5.22;;;2.35;;
62796;SDS011;48839;48.546;-4.178;2023-04-03T08:11:28;15.23;;;2.65;;
62796;SDS011;48839;48.546;-4.178;2023-04-03T08:13:55;8.13;;;2.35;;
62796;SDS011;48839;48.546;-4.178;2023-04-03T08:16:22;6.32;;;2.15;;
62796;SDS011;48839;48.546;-4.178;2023-04-03T08:18:51;25.33;;;3.90;;
62796;SDS011;48839;48.546;-4.178;2023-04-03T08:21:17;11.02;;;2.63;;
62796;SDS011;48839;48.546;-4.178;2023-04-03T08:23:43;9.10;;;2.08;;
62796;SDS011;48839;48.546;-4.178;2023-04-03T08:26:11;8.50;;;2.83;;
62796;SDS011;48839;48.546;-4.178;2023-04-03T08:28:38;5.10;;;2.03;;
62796;SDS011;48839;48.546;-4.178;2023-04-03T08:31:05;8.80;;;2.20;;
62796;SDS011;48839;48.546;-4.178;2023-04-03T08:33:32;6.35;;;2.15;;
62796;SDS011;48839;48.546;-4.178;2023-04-03T08:35:58;4.25;;;2.13;;
62796;SDS011;48839;48.546;-4.178;2023-04-03T08:38:25;5.10;;;2.15;;
62796;SDS011;48839;48.546;-4.178;2023-04-03T08:41:04;7.13;;;2.72;;
62796;SDS011;48839;48.546;-4.178;2023-04-03T08:46:24;6.20;;;2.17;;
62796;SDS011;48839;48.546;-4.178;2023-04-03T08:48:52;7.05;;;2.63;;
62796;SDS011;48839;48.546;-4.178;2023-04-03T08:51:19;3.65;;;1.92;;
62796;SDS011;48839;48.546;-4.178;2023-04-03T08:53:56;6.00;;;2.78;;
62796;SDS011;48839;48.546;-4.178;2023-04-03T08:56:22;7.68;;;2.42;;
62796;SDS011;48839;48.546;-4.178;2023-04-03T08:58:52;5.57;;;3.00;;
62796;SDS011;48839;48.546;-4.178;2023-04-03T09:01:29;5.05;;;2.20;;
62796;SDS011;48839;48.546;-4.178;2023-04-03T09:03:56;7.07;;;2.30;;
62796;SDS011;48839;48.546;-4.178;2023-04-03T09:06:23;7.45;;;2.28;;
62796;SDS011;48839;48.546;-4.178;2023-04-03T09:08:59;10.75;;;2.50;;
62796;SDS011;48839;48.546;-4.178;2023-04-03T09:11:36;8.60;;;2.45;;
62796;SDS011;48839;48.546;-4.178;2023-04-03T09:21:45;6.53;;;1.77;;
62796;SDS011;48839;48.546;-4.178;2023-04-03T09:24:15;8.10;;;2.70;;
62796;SDS011;48839;48.546;-4.178;2023-04-03T09:26:44;6.10;;;2.00;;
62796;SDS011;48839;48.546;-4.178;2023-04-03T09:29:14;7.97;;;2.30;;
62796;SDS011;48839;48.546;-4.178;2023-04-03T09:31:42;4.40;;;1.50;;
62796;SDS011;48839;48.546;-4.178;2023-04-03T09:34:23;6.53;;;1.77;;
62796;SDS011;48839;48.546;-4.178;2023-04-03T09:36:51;5.82;;;2.13;;
62796;SDS011;48839;48.546;-4.178;2023-04-03T09:39:19;7.90;;;2.47;;
62796;SDS011;48839;48.546;-4.178;2023-04-03T09:42:27;2.67;;;1.33;;
62796;SDS011;48839;48.546;-4.178;2023-04-03T09:44:36;4.55;;;1.58;;
62796;SDS011;48839;48.546;-4.178;2023-04-03T09:47:36;6.32;;;1.83;;
62796;SDS011;48839;48.546;-4.178;2023-04-03T09:50:41;4.72;;;1.65;;
62796;SDS011;48839;48.546;-4.178;2023-04-03T09:52:43;6.43;;;1.92;;
62796;SDS011;48839;48.546;-4.178;2023-04-03T09:55:16;7.78;;;1.58;;
62796;SDS011;48839;48.546;-4.178;2023-04-03T09:57:43;4.07;;;1.20;;
62796;SDS011;48839;48.546;-4.178;2023-04-03T10:00:23;6.75;;;1.50;;
62796;SDS011;48839;48.546;-4.178;2023-04-03T10:02:51;4.03;;;1.60;;
62796;SDS011;48839;48.546;-4.178;2023-04-03T10:05:28;9.95;;;2.00;;
62796;SDS011;48839;48.546;-4.178;2023-04-03T10:08:06;5.55;;;1.70;;
62796;SDS011;48839;48.546;-4.178;2023-04-03T10:10:32;11.98;;;1.90;;
62796;SDS011;48839;48.546;-4.178;2023-04-03T10:13:12;6.13;;;1.70;;
62796;SDS011;48839;48.546;-4.178;2023-04-03T10:15:40;5.65;;;1.40;;
62796;SDS011;48839;48.546;-4.178;2023-04-03T10:18:17;11.38;;;3.30;;
62796;SDS011;48839;48.546;-4.178;2023-04-03T10:20:47;8.75;;;1.77;;
62796;SDS011;48839;48.546;-4.178;2023-04-03T10:23:18;10.43;;;1.67;;
62796;SDS011;48839;48.546;-4.178;2023-04-03T10:31:19;4.57;;;1.98;;
62796;SDS011;48839;48.546;-4.178;2023-04-03T10:41:29;8.73;;;1.60;;
62796;SDS011;48839;48.546;-4.178;2023-04-03T10:44:14;2.22;;;1.20;;
62796;SDS011;48839;48.546;-4.178;2023-04-03T10:54:43;4.53;;;1.40;;
62796;SDS011;48839;48.546;-4.178;2023-04-03T10:57:11;3.30;;;1.30;;
62796;SDS011;48839;48.546;-4.178;2023-04-03T11:02:15;5.75;;;1.42;;
62796;SDS011;48839;48.546;-4.178;2023-04-03T11:04:44;6.15;;;2.00;;
62796;SDS011;48839;48.546;-4.178;2023-04-03T11:09:43;3.70;;;1.35;;
62796;SDS011;48839;48.546;-4.178;2023-04-03T11:12:14;3.22;;;1.33;;
62796;SDS011;48839;48.546;-4.178;2023-04-03T11:14:42;6.27;;;1.40;;
62796;SDS011;48839;48.546;-4.178;2023-04-03T11:24:37;9.93;;;1.90;;
62796;SDS011;48839;48.546;-4.178;2023-04-03T11:27:05;7.13;;;2.10;;
62796;SDS011;48839;48.546;-4.178;2023-04-03T11:29:34;6.88;;;1.75;;
62796;SDS011;48839;48.546;-4.178;2023-04-03T11:32:21;10.18;;;2.17;;
62796;SDS011;48839;48.546;-4.178;2023-04-03T11:34:53;6.18;;;2.08;;
62796;SDS011;48839;48.546;-4.178;2023-04-03T11:40:02;5.95;;;1.90;;
62796;SDS011;48839;48.546;-4.178;2023-04-03T11:42:32;6.43;;;2.17;;
62796;SDS011;48839;48.546;-4.178;2023-04-03T11:47:45;5.63;;;2.22;;
62796;SDS011;48839;48.546;-4.178;2023-04-03T11:52:56;5.03;;;2.05;;
62796;SDS011;48839;48.546;-4.178;2023-04-03T12:08:30;4.03;;;1.98;;
62796;SDS011;48839;48.546;-4.178;2023-04-03T12:13:35;6.43;;;2.35;;
62796;SDS011;48839;48.546;-4.178;2023-04-03T12:16:02;7.05;;;2.42;;
62796;SDS011;48839;48.546;-4.178;2023-04-03T12:21:07;5.80;;;2.78;;
62796;SDS011;48839;48.546;-4.178;2023-04-03T12:23:34;5.05;;;2.70;;
62796;SDS011;48839;48.546;-4.178;2023-04-03T12:26:03;3.53;;;2.00;;
62796;SDS011;48839;48.546;-4.178;2023-04-03T12:28:31;5.53;;;3.10;;
62796;SDS011;48839;48.546;-4.178;2023-04-03T12:31:01;7.22;;;2.47;;
62796;SDS011;48839;48.546;-4.178;2023-04-03T12:33:36;4.38;;;2.25;;
62796;SDS011;48839;48.546;-4.178;2023-04-03T12:46:22;5.25;;;2.80;;
62796;SDS011;48839;48.546;-4.178;2023-04-03T12:48:50;3.42;;;2.60;;
62796;SDS011;48839;48.546;-4.178;2023-04-03T12:51:21;5.28;;;2.70;;
62796;SDS011;48839;48.546;-4.178;2023-04-03T12:53:48;5.20;;;2.70;;
62796;SDS011;48839;48.546;-4.178;2023-04-03T12:56:19;4.75;;;2.80;;
62796;SDS011;48839;48.546;-4.178;2023-04-03T12:58:47;6.78;;;3.72;;
62796;SDS011;48839;48.546;-4.178;2023-04-03T13:01:13;7.72;;;4.05;;
62796;SDS011;48839;48.546;-4.178;2023-04-03T13:03:43;6.88;;;4.25;;
62796;SDS011;48839;48.546;-4.178;2023-04-03T13:06:10;5.57;;;3.15;;
62796;SDS011;48839;48.546;-4.178;2023-04-03T13:08:47;9.73;;;3.95;;
62796;SDS011;48839;48.546;-4.178;2023-04-03T13:13:40;7.53;;;3.65;;
62796;SDS011;48839;48.546;-4.178;2023-04-03T13:16:19;8.77;;;4.70;;
62796;SDS011;48839;48.546;-4.178;2023-04-03T13:18:48;8.68;;;5.00;;
62796;SDS011;48839;48.546;-4.178;2023-04-03T13:21:17;6.75;;;4.80;;
62796;SDS011;48839;48.546;-4.178;2023-04-03T13:23:45;6.28;;;5.20;;
62796;SDS011;48839;48.546;-4.178;2023-04-03T13:26:12;5.63;;;4.80;;
62796;SDS011;48839;48.546;-4.178;2023-04-03T13:28:41;6.93;;;4.80;;
62796;SDS011;48839;48.546;-4.178;2023-04-03T13:31:13;7.22;;;4.68;;
62796;SDS011;48839;48.546;-4.178;2023-04-03T13:34:03;7.97;;;4.72;;
62796;SDS011;48839;48.546;-4.178;2023-04-03T13:36:31;9.63;;;5.53;;
62796;SDS011;48839;48.546;-4.178;2023-04-03T13:39:03;6.30;;;5.20;;
62796;SDS011;48839;48.546;-4.178;2023-04-03T13:41:34;5.75;;;4.32;;
62796;SDS011;48839;48.546;-4.178;2023-04-03T13:46:45;6.00;;;4.65;;
62796;SDS011;48839;48.546;-4.178;2023-04-03T13:49:22;6.43;;;4.60;;
62796;SDS011;48839;48.546;-4.178;2023-04-03T13:51:52;5.57;;;4.75;;
62796;SDS011;48839;48.546;-4.178;2023-04-03T13:54:19;5.50;;;3.95;;
62796;SDS011;48839;48.546;-4.178;2023-04-03T13:56:47;6.80;;;5.55;;
62796;SDS011;48839;48.546;-4.178;2023-04-03T14:01:48;9.23;;;6.47;;
62796;SDS011;48839;48.546;-4.178;2023-04-03T14:06:40;10.07;;;6.45;;
62796;SDS011;48839;48.546;-4.178;2023-04-03T14:09:06;7.72;;;6.38;;
62796;SDS011;48839;48.546;-4.178;2023-04-03T14:11:33;7.55;;;5.60;;
62796;SDS011;48839;48.546;-4.178;2023-04-03T14:14:00;10.77;;;6.88;;
62796;SDS011;48839;48.546;-4.178;2023-04-03T14:16:30;11.20;;;7.10;;
62796;SDS011;48839;48.546;-4.178;2023-04-03T14:18:57;9.05;;;6.00;;
62796;SDS011;48839;48.546;-4.178;2023-04-03T14:21:23;8.43;;;6.65;;
62796;SDS011;48839;48.546;-4.178;2023-04-03T14:23:49;7.85;;;7.00;;
62796;SDS011;48839;48.546;-4.178;2023-04-03T14:26:23;9.45;;;6.80;;
62796;SDS011;48839;48.546;-4.178;2023-04-03T14:28:52;13.18;;;7.65;;
62796;SDS011;48839;48.546;-4.178;2023-04-03T14:31:18;9.38;;;6.60;;
62796;SDS011;48839;48.546;-4.178;2023-04-03T14:33:45;10.20;;;6.95;;
62796;SDS011;48839;48.546;-4.178;2023-04-03T14:36:22;12.65;;;7.57;;
62796;SDS011;48839;48.546;-4.178;2023-04-03T14:38:50;11.40;;;7.38;;
62796;SDS011;48839;48.546;-4.178;2023-04-03T14:41:18;11.80;;;7.15;;
62796;SDS011;48839;48.546;-4.178;2023-04-03T14:43:45;14.73;;;9.63;;
62796;SDS011;48839;48.546;-4.178;2023-04-03T14:46:16;13.43;;;8.95;;
62796;SDS011;48839;48.546;-4.178;2023-04-03T14:48:42;12.77;;;8.80;;
62796;SDS011;48839;48.546;-4.178;2023-04-03T14:51:10;10.63;;;7.85;;
62796;SDS011;48839;48.546;-4.178;2023-04-03T14:53:36;10.23;;;8.15;;
62796;SDS011;48839;48.546;-4.178;2023-04-03T14:56:04;14.00;;;9.20;;
62796;SDS011;48839;48.546;-4.178;2023-04-03T14:58:30;11.48;;;8.55;;
62796;SDS011;48839;48.546;-4.178;2023-04-03T15:00:57;10.55;;;7.60;;
62796;SDS011;48839;48.546;-4.178;2023-04-03T15:03:23;10.98;;;8.30;;
62796;SDS011;48839;48.546;-4.178;2023-04-03T15:05:49;11.77;;;8.20;;
62796;SDS011;48839;48.546;-4.178;2023-04-03T15:08:20;11.02;;;7.28;;
62796;SDS011;48839;48.546;-4.178;2023-04-03T15:10:46;11.13;;;8.48;;
62796;SDS011;48839;48.546;-4.178;2023-04-03T15:13:13;11.48;;;8.30;;
62796;SDS011;48839;48.546;-4.178;2023-04-03T15:15:39;12.48;;;9.13;;
62796;SDS011;48839;48.546;-4.178;2023-04-03T15:18:05;12.25;;;8.02;;
62796;SDS011;48839;48.546;-4.178;2023-04-03T15:20:32;13.27;;;9.07;;
62796;SDS011;48839;48.546;-4.178;2023-04-03T15:22:59;12.85;;;9.60;;
62796;SDS011;48839;48.546;-4.178;2023-04-03T15:25:26;14.95;;;8.68;;
62796;SDS011;48839;48.546;-4.178;2023-04-03T15:27:53;12.82;;;8.73;;
62796;SDS011;48839;48.546;-4.178;2023-04-03T15:30:20;14.80;;;9.73;;
62796;SDS011;48839;48.546;-4.178;2023-04-03T15:32:46;16.10;;;9.48;;
62796;SDS011;48839;48.546;-4.178;2023-04-03T15:35:13;12.68;;;9.20;;
62796;SDS011;48839;48.546;-4.178;2023-04-03T15:37:39;14.48;;;9.55;;
62796;SDS011;48839;48.546;-4.178;2023-04-03T15:40:05;15.52;;;9.82;;
62796;SDS011;48839;48.546;-4.178;2023-04-03T15:42:32;14.43;;;9.23;;
62796;SDS011;48839;48.546;-4.178;2023-04-03T15:44:58;12.63;;;8.88;;
62796;SDS011;48839;48.546;-4.178;2023-04-03T15:47:24;16.52;;;8.70;;
62796;SDS011;48839;48.546;-4.178;2023-04-03T15:49:51;14.00;;;9.07;;
62796;SDS011;48839;48.546;-4.178;2023-04-03T15:52:17;13.40;;;8.70;;
62796;SDS011;48839;48.546;-4.178;2023-04-03T15:54:43;13.50;;;8.00;;
62796;SDS011;48839;48.546;-4.178;2023-04-03T15:57:09;17.33;;;8.40;;
62796;SDS011;48839;48.546;-4.178;2023-04-03T15:59:35;12.07;;;9.00;;
62796;SDS011;48839;48.546;-4.178;2023-04-03T16:02:01;14.05;;;9.63;;
62796;SDS011;48839;48.546;-4.178;2023-04-03T16:04:29;16.00;;;9.23;;
62796;SDS011;48839;48.546;-4.178;2023-04-03T16:06:55;12.35;;;9.13;;
62796;SDS011;48839;48.546;-4.178;2023-04-03T16:09:21;14.32;;;9.65;;